Time;durP1;ratioP1;P1;durP2;ratioP2;P2;SDS_P1;SDS_P2;PMS_P1;PMS_P2;Temp;Humidity;BMP_temperature;BMP_pressure;BME280_temperature;BME280_humidity;BME280_pressure;Samples;Min_cycle;Max_cycle;Signal;HPM_P1;HPM_P2
2022/04/27 00:00:21;;;;;;;9.57;6.60;;;11.10;99.90;;;;;;5028159;28;20542;-79
2022/04/27 00:02:49;;;;;;;7.70;6.77;;;11.00;99.90;;;;;;5023921;28;20216;-78
2022/04/27 00:05:19;;;;;;;10.20;7.10;;;10.90;99.90;;;;;;5019234;28;20196;-78
2022/04/27 00:07:47;;;;;;;7.93;6.87;;;10.80;99.90;;;;;;5019970;28;20203;-78
2022/04/27 00:10:14;;;;;;;7.60;6.67;;;10.70;99.90;;;;;;5045974;28;20199;-79
2022/04/27 00:12:49;;;;;;;8.13;6.23;;;10.80;99.90;;;;;;5030054;28;20215;-76
2022/04/27 00:15:20;;;;;;;7.87;7.10;;;11.00;99.90;;;;;;5024417;28;20198;-77
2022/04/27 00:17:48;;;;;;;7.77;6.73;;;11.00;99.90;;;;;;5025604;28;20688;-76
2022/04/27 00:20:15;;;;;;;7.00;6.37;;;11.00;99.90;;;;;;5031803;28;20195;-77
2022/04/27 00:22:43;;;;;;;8.20;6.20;;;10.70;99.90;;;;;;5042765;28;20545;-77
2022/04/27 00:25:10;;;;;;;9.33;7.13;;;10.60;99.90;;;;;;5033456;28;20199;-77
2022/04/27 00:27:47;;;;;;;7.10;6.30;;;10.70;99.90;;;;;;5028830;28;20538;-77
2022/04/27 00:30:14;;;;;;;7.37;6.60;;;10.80;99.90;;;;;;5032851;28;20557;-77
2022/04/27 00:32:43;;;;;;;6.63;5.97;;;10.90;99.90;;;;;;5027348;28;20220;-77
2022/04/27 00:35:11;;;;;;;6.73;5.53;;;10.90;99.90;;;;;;5030758;28;20210;-77
2022/04/27 00:37:38;;;;;;;10.20;6.93;;;11.00;99.90;;;;;;5046627;28;20202;-77
2022/04/27 00:40:07;;;;;;;7.13;6.43;;;11.00;99.90;;;;;;5028196;28;20187;-77
2022/04/27 00:42:45;;;;;;;7.80;7.00;;;10.90;99.90;;;;;;5027887;28;20223;-76
2022/04/27 00:45:13;;;;;;;10.13;7.13;;;11.00;99.90;;;;;;5031427;28;20203;-77
2022/04/27 00:47:40;;;;;;;7.73;6.37;;;11.00;99.90;;;;;;5038540;28;20207;-77
2022/04/27 00:50:10;;;;;;;9.73;7.27;;;10.80;99.90;;;;;;5036885;28;20195;-77
2022/04/27 00:52:38;;;;;;;8.03;7.07;;;10.70;99.90;;;;;;5029943;28;20207;-77
2022/04/27 00:55:07;;;;;;;9.60;6.90;;;10.50;99.90;;;;;;5043359;28;20214;-77
2022/04/27 00:57:35;;;;;;;6.73;6.13;;;10.50;99.90;;;;;;5039267;28;20211;-77
2022/04/27 01:00:04;;;;;;;10.63;6.77;;;10.50;99.90;;;;;;5023353;28;20666;-77
2022/04/27 01:02:31;;;;;;;7.13;6.43;;;10.50;99.90;;;;;;5029250;28;20222;-76
2022/04/27 01:04:59;;;;;;;9.40;6.97;;;10.40;99.90;;;;;;5022526;28;20687;-77
2022/04/27 01:07:29;;;;;;;7.93;6.60;;;10.10;99.90;;;;;;5040996;28;20210;-76
2022/04/27 01:09:56;;;;;;;6.90;6.20;;;10.00;99.90;;;;;;5030525;28;20214;-77
2022/04/27 01:12:24;;;;;;;7.97;7.17;;;9.80;99.90;;;;;;5029255;28;20219;-77
2022/04/27 01:15:02;;;;;;;8.97;7.17;;;9.80;99.90;;;;;;5031989;28;20199;-77
2022/04/27 01:17:29;;;;;;;8.27;6.37;;;9.80;99.90;;;;;;5030020;28;20204;-76
2022/04/27 01:19:58;;;;;;;7.70;6.40;;;9.80;99.90;;;;;;5036655;28;20670;-77
2022/04/27 01:22:28;;;;;;;8.47;6.73;;;9.70;99.90;;;;;;5028392;28;20234;-77
2022/04/27 01:24:57;;;;;;;8.27;6.57;;;9.60;99.90;;;;;;5026487;28;20206;-76
2022/04/27 01:27:24;;;;;;;9.90;6.57;;;9.60;99.90;;;;;;5046380;28;20199;-77
2022/04/27 01:29:51;;;;;;;8.13;6.33;;;9.80;99.90;;;;;;5027904;28;20210;-76
2022/04/27 01:32:20;;;;;;;8.03;6.77;;;9.80;99.90;;;;;;5036015;28;20708;-77
2022/04/27 01:34:48;;;;;;;7.87;6.43;;;9.80;99.90;;;;;;5026970;28;20534;-77
2022/04/27 01:40:01;;;;;;;9.20;6.87;;;10.20;99.90;;;;;;5030246;28;20195;-77
2022/04/27 01:42:38;;;;;;;7.40;6.20;;;10.00;99.90;;;;;;5028229;28;20206;-77
2022/04/27 01:45:06;;;;;;;7.80;6.33;;;10.10;99.90;;;;;;5028332;28;20199;-77
2022/04/27 01:47:34;;;;;;;6.70;6.10;;;10.20;99.90;;;;;;5029300;28;20222;-77
2022/04/27 01:50:01;;;;;;;8.07;6.17;;;10.20;99.90;;;;;;5024169;28;20191;-77
2022/04/27 01:55:28;;;;;;;7.57;6.30;;;10.10;99.90;;;;;;4966429;28;20286;-76
2022/04/27 01:57:56;;;;;;;8.80;6.57;;;10.20;99.90;;;;;;5025916;28;20199;-77
2022/04/27 02:00:23;;;;;;;8.97;6.80;;;10.10;99.90;;;;;;5030748;28;20203;-77
2022/04/27 02:02:51;;;;;;;8.30;6.73;;;10.00;99.90;;;;;;5035388;28;20226;-76
2022/04/27 02:05:19;;;;;;;6.97;5.83;;;10.10;99.90;;;;;;5031778;28;20199;-76
2022/04/27 02:07:46;;;;;;;7.10;6.20;;;10.20;99.90;;;;;;5019679;28;20215;-76
2022/04/27 02:10:14;;;;;;;8.10;6.37;;;10.00;99.90;;;;;;5042887;28;20249;-76
2022/04/27 02:12:45;;;;;;;7.37;6.60;;;9.40;99.90;;;;;;5029452;28;20214;-76
2022/04/27 02:15:21;;;;;;;9.70;6.70;;;9.20;99.90;;;;;;5037104;28;20207;-76
2022/04/27 02:17:50;;;;;;;7.50;6.23;;;9.10;99.90;;;;;;5028917;28;20196;-76
2022/04/27 02:20:19;;;;;;;8.80;7.00;;;9.10;99.90;;;;;;5027157;28;20377;-76
2022/04/27 02:22:53;;;;;;;8.20;6.60;;;9.00;99.90;;;;;;5031752;28;20222;-77
2022/04/27 02:25:21;;;;;;;8.43;6.50;;;9.10;99.90;;;;;;5032368;28;20195;-77
2022/04/27 02:27:50;;;;;;;10.40;6.53;;;9.10;99.90;;;;;;5024314;28;20559;-77
2022/04/27 02:30:19;;;;;;;8.17;7.03;;;9.10;99.90;;;;;;5021029;28;20195;-76
2022/04/27 02:32:57;;;;;;;10.33;7.30;;;9.00;99.90;;;;;;5043701;28;20230;-77
2022/04/27 02:35:25;;;;;;;9.07;6.90;;;8.80;99.90;;;;;;5020430;28;20194;-76
2022/04/27 02:37:52;;;;;;;8.23;6.57;;;8.90;99.90;;;;;;5041888;28;20203;-77
2022/04/27 02:40:20;;;;;;;7.57;6.60;;;9.20;99.90;;;;;;5025055;28;20203;-76
2022/04/27 02:42:47;;;;;;;10.40;7.00;;;9.10;99.90;;;;;;5021907;28;20704;-76
2022/04/27 02:45:16;;;;;;;7.93;6.53;;;9.20;99.90;;;;;;5027526;28;20199;-76
2022/04/27 02:47:44;;;;;;;9.50;7.00;;;9.30;99.90;;;;;;5030704;28;20194;-76
2022/04/27 02:52:58;;;;;;;7.93;7.13;;;9.40;99.90;;;;;;5006178;28;20219;-77
2022/04/27 02:55:35;;;;;;;8.57;7.00;;;9.40;99.90;;;;;;5028658;28;20210;-77
2022/04/27 02:58:03;;;;;;;10.20;7.37;;;9.20;99.90;;;;;;5023283;28;20668;-76
2022/04/27 03:00:34;;;;;;;8.23;6.83;;;9.10;99.90;;;;;;5042515;28;20195;-76
2022/04/27 03:03:33;;;;;;;8.30;7.10;;;9.00;99.90;;;;;;5024453;28;20198;-76
2022/04/27 03:06:01;;;;;;;8.13;7.27;;;8.90;99.90;;;;;;5037195;28;20672;-76
2022/04/27 03:08:28;;;;;;;8.00;7.10;;;8.70;99.90;;;;;;5042805;28;20658;-76
2022/04/27 03:10:56;;;;;;;8.43;7.03;;;8.70;99.90;;;;;;5041467;28;20579;-76
2022/04/27 03:13:39;;;;;;;8.73;7.83;;;8.70;99.90;;;;;;5029785;28;20199;-76
2022/04/27 03:16:15;;;;;;;8.17;7.37;;;8.70;99.90;;;;;;5040031;28;20210;-76
2022/04/27 03:18:44;;;;;;;8.63;7.10;;;8.70;99.90;;;;;;5018380;28;20218;-77
2022/04/27 03:21:11;;;;;;;10.27;8.63;;;8.70;99.90;;;;;;5024605;28;20234;-77
2022/04/27 03:23:40;;;;;;;10.63;7.80;;;8.20;99.90;;;;;;5045071;28;20218;-76
2022/04/27 03:26:12;;;;;;;9.70;7.90;;;8.10;99.90;;;;;;5037936;28;20230;-76
2022/04/27 03:28:40;;;;;;;9.13;8.27;;;8.20;99.90;;;;;;5040539;28;20203;-76
2022/04/27 03:31:08;;;;;;;8.33;7.50;;;8.30;99.90;;;;;;5040279;28;20218;-76
2022/04/27 03:33:40;;;;;;;9.60;8.20;;;8.30;99.90;;;;;;5045648;28;20199;-76
2022/04/27 03:36:08;;;;;;;10.00;8.10;;;8.60;99.90;;;;;;5029712;28;20657;-76
2022/04/27 03:38:35;;;;;;;10.90;7.50;;;8.80;99.90;;;;;;5025932;28;20207;-77
2022/04/27 03:41:07;;;;;;;8.40;7.50;;;8.80;99.90;;;;;;5024790;28;20215;-76
2022/04/27 03:43:37;;;;;;;10.07;7.57;;;8.90;99.90;;;;;;5025297;28;20223;-76
2022/04/27 03:46:05;;;;;;;9.67;8.07;;;9.00;99.90;;;;;;5023529;28;20186;-76
2022/04/27 03:48:35;;;;;;;11.87;8.30;;;8.70;99.90;;;;;;5032673;28;20215;-76
2022/04/27 03:51:06;;;;;;;10.23;7.83;;;8.40;99.90;;;;;;5045965;28;20238;-77
2022/04/27 03:53:33;;;;;;;8.07;7.27;;;8.10;99.90;;;;;;5032035;28;20198;-76
2022/04/27 03:56:01;;;;;;;8.83;7.27;;;8.10;99.90;;;;;;5027677;28;20201;-76
2022/04/27 03:58:31;;;;;;;9.10;8.30;;;8.10;99.90;;;;;;5040988;28;20210;-76
2022/04/27 04:00:59;;;;;;;8.97;7.70;;;8.20;99.90;;;;;;5029403;28;20223;-76
2022/04/27 04:03:27;;;;;;;8.63;7.77;;;8.00;99.90;;;;;;5033226;28;20191;-76
2022/04/27 04:05:55;;;;;;;11.47;8.33;;;8.00;99.90;;;;;;5033084;28;20198;-76
2022/04/27 04:08:28;;;;;;;9.57;8.57;;;7.90;99.90;;;;;;5026746;28;20208;-76
2022/04/27 04:10:58;;;;;;;9.10;7.73;;;7.80;99.90;;;;;;5033305;28;20222;-76
2022/04/27 04:13:36;;;;;;;8.83;7.80;;;7.80;99.90;;;;;;5025785;28;20553;-76
2022/04/27 04:16:30;;;;;;;11.03;8.03;;;7.80;99.90;;;;;;5026413;28;20564;-76
2022/04/27 04:19:20;;;;;;;13.67;8.87;;;8.00;99.90;;;;;;5012682;28;20226;-76
2022/04/27 04:22:09;;;;;;;10.20;8.13;;;7.90;99.90;;;;;;5041836;28;20242;-76
2022/04/27 04:28:31;;;;;;;10.43;8.97;;;7.80;99.90;;;;;;5042577;28;20217;-76
2022/04/27 04:31:00;;;;;;;9.83;8.63;;;7.70;99.90;;;;;;5022149;28;20226;-76
2022/04/27 04:33:31;;;;;;;11.30;8.97;;;7.90;99.90;;;;;;5032226;28;20199;-75
2022/04/27 04:36:02;;;;;;;11.43;8.90;;;8.20;99.90;;;;;;5041832;28;20207;-76
2022/04/27 04:38:30;;;;;;;13.00;9.70;;;8.40;99.90;;;;;;5045916;28;20649;-76
2022/04/27 04:41:09;;;;;;;10.87;9.70;;;8.40;99.90;;;;;;5029517;28;20234;-76
2022/04/27 04:43:42;;;;;;;12.17;9.90;;;8.50;99.90;;;;;;5026385;28;20200;-76
2022/04/27 04:46:11;;;;;;;15.53;9.63;;;8.60;99.90;;;;;;5030955;28;20194;-76
2022/04/27 04:48:53;;;;;;;11.07;9.20;;;8.50;99.90;;;;;;5028243;28;20576;-76
2022/04/27 04:51:39;;;;;;;11.67;10.00;;;8.30;99.90;;;;;;5029552;28;20588;-76
2022/04/27 04:54:25;;;;;;;13.27;9.53;;;8.20;99.90;;;;;;5035147;28;20206;-76
2022/04/27 04:57:02;;;;;;;10.07;9.07;;;8.00;99.90;;;;;;5029612;28;20190;-77
2022/04/27 04:59:51;;;;;;;14.57;9.47;;;8.00;99.90;;;;;;5031723;28;20195;-76
2022/04/27 05:02:38;;;;;;;12.30;9.63;;;8.10;99.90;;;;;;5027510;28;20226;-76
2022/04/27 05:06:07;;;;;;;10.87;9.77;;;8.00;99.90;;;;;;5025115;28;20215;-76
2022/04/27 05:09:08;;;;;;;13.53;10.27;;;8.10;99.90;;;;;;5028821;28;20206;-77
2022/04/27 05:12:11;;;;;;;12.73;10.47;;;8.10;99.90;;;;;;5030674;28;20851;-76
2022/04/27 05:15:02;;;;;;;12.00;9.83;;;8.20;99.90;;;;;;5033993;28;20202;-77
2022/04/27 05:17:44;;;;;;;12.30;10.57;;;8.30;99.90;;;;;;5028399;28;20205;-76
2022/04/27 05:20:26;;;;;;;11.47;10.27;;;8.20;99.90;;;;;;5023970;28;20199;-77
2022/04/27 05:23:32;;;;;;;12.57;10.17;;;8.10;99.90;;;;;;5024659;28;20210;-76
2022/04/27 05:26:12;;;;;;;13.93;10.93;;;8.30;99.90;;;;;;5032342;28;20211;-77
2022/04/27 05:31:57;;;;;;;14.90;10.27;;;8.50;99.90;;;;;;5017040;28;20286;-77
2022/04/27 05:34:52;;;;;;;16.27;11.03;;;8.60;99.90;;;;;;5039514;28;20590;-76
2022/04/27 05:37:52;;;;;;;15.33;11.33;;;8.50;99.90;;;;;;5029580;28;20195;-77
2022/04/27 05:40:47;;;;;;;11.90;10.37;;;8.50;99.90;;;;;;5032218;28;20214;-77
2022/04/27 05:43:23;;;;;;;11.80;10.20;;;8.50;99.90;;;;;;5031979;28;20206;-77
2022/04/27 05:46:07;;;;;;;13.73;10.17;;;8.80;99.90;;;;;;5044835;28;20223;-77
2022/04/27 05:48:59;;;;;;;13.80;10.90;;;9.10;99.90;;;;;;5022225;28;20210;-76
2022/04/27 05:51:40;;;;;;;11.73;10.63;;;9.10;99.90;;;;;;5027018;28;20232;-76
2022/04/27 05:54:25;;;;;;;14.87;11.93;;;9.10;99.90;;;;;;5029006;28;20211;-76
2022/04/27 05:57:31;;;;;;;15.10;11.47;;;9.10;99.90;;;;;;5008433;28;20195;-77
2022/04/27 06:00:49;;;;;;;13.60;11.07;;;9.30;99.90;;;;;;5002503;28;20205;-77
2022/04/27 06:03:43;;;;;;;15.90;11.10;;;9.30;99.90;;;;;;5025304;28;20213;-77
2022/04/27 06:06:23;;;;;;;16.13;12.53;;;9.10;99.90;;;;;;5027309;28;20203;-77
2022/04/27 06:08:51;;;;;;;16.27;11.23;;;9.20;99.90;;;;;;5030775;28;20214;-77
2022/04/27 06:11:25;;;;;;;16.07;12.07;;;9.30;99.90;;;;;;5026815;28;20219;-77
2022/04/27 06:14:12;;;;;;;18.17;12.40;;;9.40;99.90;;;;;;5017588;28;20568;-77
2022/04/27 06:16:46;;;;;;;18.50;12.03;;;9.20;99.90;;;;;;5043220;28;20202;-78
2022/04/27 06:19:24;;;;;;;15.27;12.47;;;9.30;99.90;;;;;;5043814;28;20570;-78
2022/04/27 06:21:54;;;;;;;14.63;11.63;;;9.20;99.90;;;;;;5029869;28;20211;-78
2022/04/27 06:24:23;;;;;;;16.27;12.87;;;9.50;99.90;;;;;;5043362;28;20195;-78
2022/04/27 06:26:55;;;;;;;13.40;11.87;;;9.70;99.90;;;;;;5033420;28;20226;-78
2022/04/27 06:29:23;;;;;;;15.93;12.37;;;9.60;99.90;;;;;;5026097;28;20198;-80
2022/04/27 06:31:52;;;;;;;13.67;10.83;;;9.50;99.90;;;;;;5041108;28;20226;-81
2022/04/27 06:34:20;;;;;;;17.03;11.83;;;9.60;99.90;;;;;;5019403;28;20199;-77
2022/04/27 06:36:49;;;;;;;13.27;11.20;;;9.80;99.90;;;;;;5021396;28;20697;-78
2022/04/27 06:39:31;;;;;;;13.37;11.10;;;9.60;99.90;;;;;;5028150;28;20209;-78
2022/04/27 06:42:05;;;;;;;14.73;11.53;;;9.60;99.90;;;;;;5028972;28;20218;-79
2022/04/27 06:44:36;;;;;;;15.40;11.27;;;9.70;99.90;;;;;;5037247;28;20206;-78
2022/04/27 06:47:21;;;;;;;13.03;11.70;;;9.90;99.90;;;;;;5023799;28;20210;-78
2022/04/27 06:50:11;;;;;;;14.90;11.30;;;9.90;99.90;;;;;;5031286;28;20217;-79
2022/04/27 06:52:59;;;;;;;13.23;10.60;;;10.00;99.90;;;;;;5024782;28;20230;-82
2022/04/27 06:55:42;;;;;;;12.93;10.97;;;10.00;99.90;;;;;;5028514;28;20214;-78
2022/04/27 06:58:15;;;;;;;13.47;11.23;;;10.10;99.90;;;;;;5033566;28;20191;-80
2022/04/27 07:00:47;;;;;;;13.93;11.80;;;10.00;99.90;;;;;;5029377;28;20203;-79
2022/04/27 07:03:15;;;;;;;11.53;10.20;;;10.00;99.90;;;;;;5029740;28;20210;-79
2022/04/27 07:05:42;;;;;;;12.07;10.87;;;10.20;99.90;;;;;;5041637;28;20239;-78
2022/04/27 07:08:11;;;;;;;14.20;10.50;;;10.40;99.90;;;;;;5044176;28;20199;-79
2022/04/27 07:10:39;;;;;;;11.40;10.03;;;10.50;99.90;;;;;;5021753;28;20202;-78
2022/04/27 07:13:06;;;;;;;13.73;11.20;;;10.60;99.90;;;;;;5029574;28;20195;-79
2022/04/27 07:15:34;;;;;;;10.93;9.83;;;10.50;99.90;;;;;;5029566;28;20209;-79
2022/04/27 07:18:02;;;;;;;11.93;9.37;;;10.70;99.90;;;;;;5043872;28;20238;-81
2022/04/27 07:20:39;;;;;;;11.27;9.50;;;10.70;99.90;;;;;;5028582;28;20569;-79
2022/04/27 07:23:06;;;;;;;11.40;9.70;;;10.70;99.90;;;;;;5028875;28;20186;-81
2022/04/27 07:25:35;;;;;;;12.70;9.83;;;10.80;99.90;;;;;;5028472;28;20214;-78
2022/04/27 07:28:03;;;;;;;10.57;9.40;;;11.00;99.90;;;;;;5036405;28;20561;-77
2022/04/27 07:30:39;;;;;;;11.77;8.97;;;11.10;99.90;;;;;;5024900;28;20194;-76
2022/04/27 07:33:07;;;;;;;10.47;8.40;;;11.10;99.90;;;;;;5024445;28;20198;-78
2022/04/27 07:35:36;;;;;;;11.13;8.50;;;11.30;99.90;;;;;;5023272;28;20201;-76
2022/04/27 07:38:04;;;;;;;9.83;8.27;;;11.30;99.90;;;;;;5023318;28;20202;-76
2022/04/27 07:40:31;;;;;;;8.60;7.80;;;11.30;99.90;;;;;;5018770;28;20662;-76
2022/04/27 07:43:00;;;;;;;11.27;7.70;;;11.30;99.90;;;;;;5028410;28;20219;-76
2022/04/27 07:45:28;;;;;;;9.33;6.83;;;11.20;99.90;;;;;;5031615;28;20219;-76
2022/04/27 07:47:56;;;;;;;8.70;7.23;;;11.30;99.90;;;;;;5030816;28;20203;-76
2022/04/27 07:50:23;;;;;;;10.87;7.40;;;11.20;99.90;;;;;;5030998;28;20210;-76
2022/04/27 07:52:51;;;;;;;9.50;8.43;;;11.40;99.80;;;;;;5032152;28;20230;-76
2022/04/27 07:55:19;;;;;;;13.57;8.63;;;11.50;99.90;;;;;;5031516;28;20206;-76
2022/04/27 07:57:46;;;;;;;10.93;9.00;;;11.50;99.80;;;;;;5030595;28;20195;-76
2022/04/27 08:00:16;;;;;;;10.27;8.73;;;11.40;99.90;;;;;;5026006;28;20561;-77
2022/04/27 08:02:44;;;;;;;11.03;8.67;;;11.40;99.90;;;;;;5012233;28;20219;-76
2022/04/27 08:05:12;;;;;;;11.60;8.43;;;11.40;99.90;;;;;;5027698;28;20211;-76
2022/04/27 08:07:40;;;;;;;9.30;8.37;;;11.30;99.90;;;;;;5027322;28;20199;-77
2022/04/27 08:10:09;;;;;;;10.40;8.10;;;11.40;99.90;;;;;;5031848;28;20684;-77
2022/04/27 08:12:48;;;;;;;12.43;9.90;;;11.60;99.90;;;;;;5028316;28;20227;-76
2022/04/27 08:15:19;;;;;;;9.80;7.87;;;11.50;99.40;;;;;;5011732;28;20199;-76
2022/04/27 08:17:54;;;;;;;9.13;7.40;;;11.70;99.50;;;;;;5012016;28;20191;-76
2022/04/27 08:23:09;;;;;;;11.97;10.10;;;11.80;99.70;;;;;;5023814;28;20526;-77
2022/04/27 08:25:37;;;;;;;11.40;9.73;;;11.70;98.90;;;;;;5032154;28;20175;-76
2022/04/27 08:28:06;;;;;;;10.73;9.63;;;11.90;99.10;;;;;;5031883;28;20182;-76
2022/04/27 08:30:36;;;;;;;13.97;10.27;;;11.80;99.80;;;;;;5028436;28;20218;-76
2022/04/27 08:33:04;;;;;;;12.70;9.53;;;11.70;99.90;;;;;;5022651;28;20220;-77
2022/04/27 08:35:32;;;;;;;9.97;8.73;;;11.90;99.90;;;;;;5022648;28;20650;-77
2022/04/27 08:38:02;;;;;;;8.43;7.73;;;12.10;99.20;;;;;;5026996;28;20203;-77
2022/04/27 08:40:35;;;;;;;10.23;8.10;;;12.20;98.10;;;;;;5034061;28;20203;-77
2022/04/27 08:43:02;;;;;;;12.17;9.57;;;12.10;98.00;;;;;;5020477;28;20218;-77
2022/04/27 08:45:31;;;;;;;10.60;8.37;;;12.10;99.00;;;;;;5032295;28;20234;-77
2022/04/27 08:48:00;;;;;;;10.50;8.20;;;12.20;98.40;;;;;;5031977;28;20207;-76
2022/04/27 08:50:32;;;;;;;10.00;8.50;;;12.20;98.30;;;;;;5031317;28;20206;-77
2022/04/27 08:53:00;;;;;;;11.43;7.23;;;12.20;98.30;;;;;;5023771;28;20223;-77
2022/04/27 08:55:28;;;;;;;7.70;7.03;;;12.10;97.10;;;;;;5020858;28;20210;-77
2022/04/27 08:58:06;;;;;;;8.40;7.60;;;12.10;96.10;;;;;;5029490;28;20199;-76
2022/04/27 09:00:33;;;;;;;8.97;8.07;;;12.20;96.90;;;;;;5026209;28;20203;-77
2022/04/27 09:03:23;;;;;;;8.77;7.47;;;12.20;98.40;;;;;;5031591;28;20226;-77
2022/04/27 09:05:52;;;;;;;9.40;7.90;;;12.40;97.90;;;;;;5038111;28;20558;-77
2022/04/27 09:08:19;;;;;;;9.38;7.38;;;12.50;96.50;;;;;;5036590;28;20203;-77
2022/04/27 09:10:47;;;;;;;9.27;7.23;;;12.40;94.60;;;;;;5019333;28;20194;-76
2022/04/27 09:13:17;;;;;;;9.17;7.27;;;12.60;94.60;;;;;;5027534;28;20672;-77
2022/04/27 09:15:45;;;;;;;8.53;6.97;;;12.60;95.00;;;;;;5028162;28;20200;-78
2022/04/27 09:21:03;;;;;;;8.98;7.72;;;12.90;94.00;;;;;;5031704;28;20199;-76
2022/04/27 09:23:41;;;;;;;7.15;6.40;;;12.90;94.10;;;;;;5028544;28;20199;-78
2022/04/27 09:26:16;;;;;;;8.60;7.68;;;13.00;94.40;;;;;;5023492;28;20202;-77
2022/04/27 09:28:49;;;;;;;8.47;7.30;;;12.70;95.50;;;;;;5026131;28;20210;-78
2022/04/27 09:31:30;;;;;;;8.97;7.13;;;12.50;94.30;;;;;;5023483;28;20583;-77
2022/04/27 09:33:59;;;;;;;8.32;7.00;;;12.70;94.20;;;;;;5023449;28;20192;-77
2022/04/27 09:36:29;;;;;;;8.73;7.30;;;12.80;95.10;;;;;;5026636;28;20552;-78
2022/04/27 09:38:58;;;;;;;10.25;7.63;;;12.90;95.70;;;;;;5038717;28;20196;-78
2022/04/27 09:41:46;;;;;;;8.85;6.90;;;12.80;94.10;;;;;;5021674;28;20218;-78
2022/04/27 09:44:29;;;;;;;8.85;7.22;;;12.90;95.00;;;;;;5031379;28;20207;-78
2022/04/27 09:46:57;;;;;;;8.52;7.20;;;13.00;93.80;;;;;;5031057;28;20227;-78
2022/04/27 09:49:25;;;;;;;9.93;8.15;;;13.10;93.90;;;;;;5047089;28;20207;-79
2022/04/27 09:51:56;;;;;;;10.68;8.35;;;13.10;93.00;;;;;;5044319;28;20672;-78
2022/04/27 09:54:25;;;;;;;8.10;7.15;;;13.30;94.50;;;;;;5027228;28;20215;-78
2022/04/27 09:56:57;;;;;;;8.70;7.90;;;13.40;93.30;;;;;;5020659;28;20207;-78
2022/04/27 09:59:29;;;;;;;8.52;6.93;;;13.20;92.60;;;;;;5029561;28;20199;-78
2022/04/27 10:02:05;;;;;;;9.38;7.68;;;13.20;93.00;;;;;;5046112;28;20242;-78
2022/04/27 10:04:32;;;;;;;8.93;7.85;;;13.30;93.40;;;;;;5031016;28;20199;-78
2022/04/27 10:07:03;;;;;;;9.68;8.20;;;13.30;93.80;;;;;;5027804;28;20230;-78
2022/04/27 10:09:34;;;;;;;11.00;8.02;;;13.50;94.00;;;;;;5029814;28;20206;-78
2022/04/27 10:12:06;;;;;;;9.95;8.50;;;13.60;93.90;;;;;;5034392;28;20568;-78
2022/04/27 10:14:34;;;;;;;10.70;7.55;;;13.40;92.30;;;;;;5027497;28;20204;-78
2022/04/27 10:17:01;;;;;;;8.45;7.60;;;13.50;92.50;;;;;;5027671;28;20209;-77
2022/04/27 10:19:29;;;;;;;11.10;9.13;;;13.60;93.20;;;;;;5029396;28;20195;-78
2022/04/27 10:21:57;;;;;;;9.93;8.50;;;13.70;93.60;;;;;;5045496;28;20226;-78
2022/04/27 10:24:50;;;;;;;10.70;9.63;;;13.80;92.90;;;;;;5033839;28;20203;-78
2022/04/27 10:27:19;;;;;;;11.68;9.27;;;14.00;94.40;;;;;;5046404;28;20257;-77
2022/04/27 10:30:00;;;;;;;10.88;8.93;;;14.10;93.80;;;;;;5020312;28;20207;-77
2022/04/27 10:32:41;;;;;;;10.13;9.10;;;14.10;93.70;;;;;;5026290;28;20223;-77
2022/04/27 10:35:18;;;;;;;9.00;8.13;;;14.30;92.10;;;;;;5028549;28;20220;-77
2022/04/27 10:37:47;;;;;;;10.25;9.32;;;14.50;91.30;;;;;;5026470;28;20188;-77
2022/04/27 10:40:30;;;;;;;10.20;8.70;;;14.40;90.40;;;;;;5022704;28;20525;-77
2022/04/27 10:43:09;;;;;;;9.27;8.38;;;14.30;91.20;;;;;;5023290;28;20219;-78
2022/04/27 10:45:44;;;;;;;10.65;8.45;;;14.60;91.20;;;;;;5045182;28;20583;-78
2022/04/27 10:48:16;;;;;;;9.48;8.23;;;14.90;90.60;;;;;;5027672;28;20250;-78
2022/04/27 10:50:56;;;;;;;10.23;8.48;;;15.20;91.00;;;;;;5027202;28;20194;-78
2022/04/27 10:53:41;;;;;;;9.32;7.93;;;15.40;89.90;;;;;;5023705;28;20202;-78
2022/04/27 10:56:23;;;;;;;11.13;8.68;;;15.50;89.70;;;;;;5041863;28;20565;-78
2022/04/27 10:59:03;;;;;;;9.45;8.52;;;15.10;88.20;;;;;;5029054;28;20190;-78
2022/04/27 11:01:34;;;;;;;10.00;8.75;;;15.10;90.90;;;;;;5025119;28;20223;-78
2022/04/27 11:04:14;;;;;;;8.93;8.05;;;14.70;89.70;;;;;;5023980;28;20204;-78
2022/04/27 11:07:12;;;;;;;9.40;8.43;;;14.70;90.20;;;;;;5028279;28;20198;-78
2022/04/27 11:10:20;;;;;;;9.77;8.77;;;15.20;89.30;;;;;;5023202;28;20569;-78
2022/04/27 11:12:53;;;;;;;9.25;8.32;;;15.60;86.70;;;;;;5038687;28;20238;-78
2022/04/27 11:15:23;;;;;;;11.00;8.30;;;15.80;84.20;;;;;;5029198;28;20205;-78
2022/04/27 11:18:01;;;;;;;10.15;7.85;;;15.90;85.30;;;;;;5035409;28;20200;-78
2022/04/27 11:21:02;;;;;;;9.70;7.85;;;16.10;85.40;;;;;;5021616;28;20191;-78
2022/04/27 11:23:30;;;;;;;9.55;8.63;;;16.20;87.70;;;;;;5039573;28;20668;-78
2022/04/27 11:26:00;;;;;;;9.02;7.95;;;16.40;85.10;;;;;;5023712;28;20207;-78
2022/04/27 11:28:30;;;;;;;8.70;7.75;;;16.50;82.90;;;;;;5038337;28;20215;-78
2022/04/27 11:30:58;;;;;;;11.05;8.35;;;16.60;79.40;;;;;;5027276;28;20194;-77
2022/04/27 11:33:40;;;;;;;8.93;8.05;;;16.30;84.20;;;;;;5044707;28;20573;-78
2022/04/27 11:36:11;;;;;;;9.63;8.70;;;16.60;82.80;;;;;;5024980;28;20206;-77
2022/04/27 11:38:38;;;;;;;9.25;8.35;;;16.00;80.50;;;;;;5019239;28;20629;-77
2022/04/27 11:41:24;;;;;;;10.73;9.05;;;16.10;78.50;;;;;;5025355;28;20251;-77
2022/04/27 11:43:54;;;;;;;9.27;8.35;;;16.50;77.10;;;;;;5025189;28;20214;-77
2022/04/27 11:46:37;;;;;;;8.93;8.02;;;16.60;76.20;;;;;;5028295;28;20215;-77
2022/04/27 11:49:10;;;;;;;8.77;7.43;;;17.00;76.90;;;;;;5022543;28;20234;-77
2022/04/27 11:51:38;;;;;;;9.15;8.25;;;17.00;74.70;;;;;;5027912;28;20241;-77
2022/04/27 11:54:05;;;;;;;9.63;8.60;;;16.80;73.70;;;;;;5030796;28;20206;-77
2022/04/27 11:56:39;;;;;;;8.75;8.05;;;16.50;74.30;;;;;;5031273;28;20202;-77
2022/04/27 11:59:12;;;;;;;9.50;8.48;;;16.30;73.80;;;;;;5043363;28;20199;-77
2022/04/27 12:01:39;;;;;;;9.85;8.85;;;16.50;75.70;;;;;;5030160;28;20219;-77
2022/04/27 12:04:08;;;;;;;12.60;9.30;;;16.20;76.50;;;;;;5025216;28;20562;-77
2022/04/27 12:06:35;;;;;;;9.45;8.52;;;15.90;74.20;;;;;;5032031;28;20206;-78
2022/04/27 12:09:03;;;;;;;9.80;8.73;;;16.70;79.40;;;;;;5029074;28;20215;-77
2022/04/27 12:11:33;;;;;;;9.80;8.80;;;17.10;76.40;;;;;;5046815;28;20223;-77
2022/04/27 12:14:00;;;;;;;12.50;9.40;;;17.30;72.10;;;;;;5029581;28;20210;-78
2022/04/27 12:16:30;;;;;;;9.55;8.65;;;17.60;69.50;;;;;;5033878;28;20217;-78
2022/04/27 12:18:59;;;;;;;10.00;9.00;;;17.70;68.30;;;;;;5047775;28;20210;-77
2022/04/27 12:21:27;;;;;;;10.75;9.52;;;17.60;70.60;;;;;;5034527;28;20227;-77
2022/04/27 12:23:56;;;;;;;10.70;9.73;;;17.30;69.30;;;;;;5032508;28;20206;-78
2022/04/27 12:26:24;;;;;;;10.63;9.73;;;16.80;70.80;;;;;;5031219;28;20206;-78
2022/04/27 12:28:52;;;;;;;10.25;9.15;;;17.10;69.20;;;;;;5022855;28;20200;-77
2022/04/27 12:31:20;;;;;;;9.77;8.77;;;17.80;69.20;;;;;;5030368;28;20218;-77
2022/04/27 12:33:51;;;;;;;11.70;10.55;;;17.80;70.50;;;;;;5028477;28;20198;-77
2022/04/27 12:39:20;;;;;;;10.63;9.60;;;17.80;68.00;;;;;;5028839;28;20210;-77
2022/04/27 12:41:49;;;;;;;10.52;9.45;;;18.30;66.80;;;;;;5034813;28;20293;-77
2022/04/27 12:44:24;;;;;;;10.50;9.40;;;18.40;65.00;;;;;;5025404;28;20195;-79
2022/04/27 12:47:11;;;;;;;10.65;9.70;;;18.70;61.50;;;;;;5047173;28;20199;-78
2022/04/27 12:49:41;;;;;;;8.52;7.75;;;18.90;62.90;;;;;;5040320;28;20216;-78
2022/04/27 12:52:16;;;;;;;9.10;8.02;;;19.00;63.20;;;;;;5041165;28;20215;-78
2022/04/27 12:54:47;;;;;;;9.90;9.00;;;18.70;64.50;;;;;;5047974;28;20206;-78
2022/04/27 12:57:15;;;;;;;10.57;8.43;;;18.40;66.70;;;;;;5041153;28;20206;-78
2022/04/27 12:59:56;;;;;;;9.95;8.98;;;18.90;63.90;;;;;;5030695;28;20204;-78
2022/04/27 13:02:24;;;;;;;10.75;9.18;;;19.00;62.50;;;;;;5031018;28;20224;-78
2022/04/27 13:04:54;;;;;;;10.02;9.02;;;19.00;62.50;;;;;;5014769;28;20191;-78
2022/04/27 13:07:26;;;;;;;10.27;9.18;;;18.70;63.30;;;;;;5028004;28;20191;-78
2022/04/27 13:12:39;;;;;;;9.93;8.90;;;18.00;64.50;;;;;;5031258;28;20226;-78
2022/04/27 13:15:08;;;;;;;9.75;8.75;;;18.70;63.60;;;;;;5027386;28;20202;-78
2022/04/27 13:17:36;;;;;;;11.45;9.27;;;18.90;61.90;;;;;;5046978;28;20191;-78
2022/04/27 13:20:08;;;;;;;10.20;9.20;;;18.70;61.50;;;;;;5042819;28;20214;-78
2022/04/27 13:22:36;;;;;;;10.80;9.70;;;18.90;62.10;;;;;;5026723;28;20207;-78
2022/04/27 13:25:05;;;;;;;12.05;9.25;;;18.50;60.70;;;;;;5025928;28;20203;-78
2022/04/27 13:27:37;;;;;;;10.82;9.80;;;18.30;61.30;;;;;;5032874;28;20206;-78
2022/04/27 13:30:06;;;;;;;10.93;9.80;;;18.30;62.90;;;;;;5037633;28;20212;-78
2022/04/27 13:32:41;;;;;;;10.95;9.95;;;17.70;64.10;;;;;;5029834;28;20219;-78
2022/04/27 13:35:11;;;;;;;12.88;10.02;;;17.90;62.80;;;;;;5032838;28;20195;-77
2022/04/27 13:37:40;;;;;;;11.50;10.38;;;18.80;61.50;;;;;;5029398;28;20199;-78
2022/04/27 13:40:09;;;;;;;10.90;9.80;;;18.40;63.00;;;;;;5033823;28;20760;-78